Time;durP1;ratioP1;P1;durP2;ratioP2;P2;SDS_P1;SDS_P2;PMS_P1;PMS_P2;Temp;Humidity;BMP_temperature;BMP_pressure;BME280_temperature;BME280_humidity;BME280_pressure;Samples;Min_cycle;Max_cycle;Signal;HPM_P1;HPM_P2
2023/06/08 00:01:18;;;;;;;13.23;9.38;;;19.10;99.90;;;;;;5042988;28;20750;-78
2023/06/08 00:04:08;;;;;;;11.88;9.02;;;19.20;99.90;;;;;;5051707;28;20240;-78
2023/06/08 00:06:57;;;;;;;13.43;9.60;;;19.20;99.90;;;;;;5084023;28;20219;-78
2023/06/08 00:09:46;;;;;;;14.02;9.80;;;19.00;99.90;;;;;;5076642;28;20235;-79
2023/06/08 00:12:36;;;;;;;13.77;9.32;;;18.80;99.90;;;;;;5069507;28;21123;-77
2023/06/08 00:15:25;;;;;;;12.48;9.25;;;18.80;99.90;;;;;;5067842;28;20785;-79
2023/06/08 00:18:15;;;;;;;9.73;8.60;;;18.80;99.90;;;;;;5050774;28;20266;-77
2023/06/08 00:21:06;;;;;;;11.00;9.05;;;18.70;99.90;;;;;;5085437;28;20235;-79
2023/06/08 00:23:55;;;;;;;11.25;9.60;;;18.60;99.90;;;;;;5054905;28;20393;-79
2023/06/08 00:26:44;;;;;;;10.57;9.15;;;18.80;99.90;;;;;;5072874;28;20712;-80
2023/06/08 00:29:33;;;;;;;10.90;9.40;;;18.80;99.90;;;;;;5064475;28;20717;-79
2023/06/08 00:32:24;;;;;;;12.52;9.77;;;18.80;99.90;;;;;;5082939;28;20215;-79
2023/06/08 00:35:13;;;;;;;11.95;9.75;;;18.80;99.90;;;;;;5071360;28;20291;-80
2023/06/08 00:38:03;;;;;;;10.65;9.55;;;18.90;99.90;;;;;;5070502;28;20295;-79
2023/06/08 00:40:52;;;;;;;12.10;9.25;;;18.70;99.90;;;;;;5057721;28;20891;-80
2023/06/08 00:43:43;;;;;;;11.77;9.43;;;18.50;99.90;;;;;;5066781;28;20302;-80
2023/06/08 00:46:33;;;;;;;13.48;9.38;;;18.60;99.90;;;;;;5055099;28;20232;-79
2023/06/08 00:49:23;;;;;;;10.70;9.05;;;18.30;99.90;;;;;;5033154;28;20232;-75
2023/06/08 00:52:12;;;;;;;11.07;9.45;;;18.30;99.90;;;;;;5064030;28;20880;-80
2023/06/08 00:55:06;;;;;;;12.63;8.88;;;18.20;99.90;;;;;;5070566;28;20284;-79
2023/06/08 00:57:55;;;;;;;11.85;9.48;;;18.10;99.90;;;;;;5065470;28;20760;-80
2023/06/08 01:00:44;;;;;;;13.68;9.85;;;18.10;99.90;;;;;;5063000;28;20368;-80
2023/06/08 01:03:45;;;;;;;13.85;10.27;;;17.90;99.90;;;;;;5069696;28;20908;-78
2023/06/08 01:06:36;;;;;;;18.90;10.15;;;17.90;99.90;;;;;;5050354;28;20742;-79
2023/06/08 01:09:33;;;;;;;9.88;8.93;;;17.90;99.90;;;;;;5057974;28;20234;-79
2023/06/08 01:12:32;;;;;;;12.82;9.98;;;17.90;99.90;;;;;;5064289;28;20255;-79
2023/06/08 01:15:27;;;;;;;17.88;10.43;;;17.90;99.90;;;;;;5053281;28;20315;-78
2023/06/08 01:18:17;;;;;;;16.40;10.38;;;17.70;99.90;;;;;;5065202;28;20220;-77
2023/06/08 01:21:22;;;;;;;13.60;10.30;;;18.00;99.90;;;;;;5036979;28;20278;-78
2023/06/08 01:24:16;;;;;;;16.15;11.13;;;18.00;99.90;;;;;;5083049;28;20426;-78
2023/06/08 01:27:07;;;;;;;13.40;10.85;;;18.10;99.90;;;;;;5061618;28;20234;-78
2023/06/08 01:29:56;;;;;;;13.75;10.93;;;17.90;99.90;;;;;;5068417;28;20299;-78
2023/06/08 01:32:45;;;;;;;15.32;11.00;;;18.00;99.90;;;;;;5075134;28;20312;-77
2023/06/08 01:35:34;;;;;;;14.85;10.73;;;18.20;99.90;;;;;;5054557;28;20303;-78
2023/06/08 01:38:29;;;;;;;14.43;11.50;;;18.20;99.90;;;;;;5058779;28;20919;-75
2023/06/08 01:41:23;;;;;;;12.82;10.95;;;18.10;99.90;;;;;;5053043;28;20224;-79
2023/06/08 01:44:15;;;;;;;13.27;11.57;;;18.00;99.90;;;;;;5075759;28;20304;-78
2023/06/08 01:47:06;;;;;;;12.70;11.27;;;18.10;99.90;;;;;;5068050;28;20307;-78
2023/06/08 01:49:56;;;;;;;14.30;10.85;;;18.00;99.90;;;;;;5064446;28;20347;-78
2023/06/08 01:52:45;;;;;;;13.63;10.52;;;17.90;99.90;;;;;;5063145;28;20227;-79
2023/06/08 01:55:34;;;;;;;15.73;11.55;;;17.90;99.90;;;;;;5081227;28;20276;-78
2023/06/08 01:58:24;;;;;;;14.32;11.88;;;17.80;99.90;;;;;;5071870;28;20227;-74
2023/06/08 02:01:13;;;;;;;12.05;10.82;;;17.70;99.90;;;;;;5066858;28;20220;-78
2023/06/08 02:04:06;;;;;;;15.98;11.40;;;17.70;99.90;;;;;;5076867;28;20857;-78
2023/06/08 02:06:55;;;;;;;15.88;11.68;;;17.80;99.90;;;;;;5063659;28;20299;-78
2023/06/08 02:09:44;;;;;;;16.45;11.52;;;17.80;99.90;;;;;;5060482;28;20258;-79
2023/06/08 02:12:33;;;;;;;14.02;10.98;;;17.60;99.90;;;;;;5052961;28;20255;-78
2023/06/08 02:15:23;;;;;;;13.43;12.02;;;17.60;99.90;;;;;;5061033;28;20228;-77
2023/06/08 02:18:14;;;;;;;15.88;11.98;;;17.30;99.90;;;;;;5057648;28;20314;-76
2023/06/08 02:21:04;;;;;;;15.32;11.60;;;17.20;99.90;;;;;;5045522;28;20212;-77
2023/06/08 02:23:53;;;;;;;15.20;11.60;;;17.30;99.90;;;;;;5072908;28;20346;-79
2023/06/08 02:26:42;;;;;;;13.98;11.25;;;17.20;99.90;;;;;;5063216;28;20228;-79
2023/06/08 02:29:31;;;;;;;12.35;11.05;;;17.20;99.90;;;;;;5075303;28;20223;-78
2023/06/08 02:32:22;;;;;;;13.45;11.05;;;17.10;99.90;;;;;;5079733;28;20216;-78
2023/06/08 02:35:11;;;;;;;12.85;11.35;;;16.90;99.90;;;;;;5059379;28;20224;-79
2023/06/08 02:38:04;;;;;;;12.35;11.07;;;17.00;99.90;;;;;;5054930;28;20220;-76
2023/06/08 02:40:53;;;;;;;12.60;11.30;;;17.10;99.90;;;;;;5077934;28;20215;-78
2023/06/08 02:43:42;;;;;;;15.77;11.60;;;17.30;99.90;;;;;;5038374;28;20747;-78
2023/06/08 02:46:32;;;;;;;14.20;11.18;;;17.10;99.90;;;;;;5072374;28;20622;-78
2023/06/08 02:49:23;;;;;;;13.32;11.65;;;17.10;99.90;;;;;;5061697;28;20223;-78
2023/06/08 02:52:12;;;;;;;15.38;11.90;;;17.20;99.90;;;;;;5067640;28;20322;-78
2023/06/08 02:55:00;;;;;;;14.32;12.05;;;17.30;99.90;;;;;;5039043;28;20216;-78
2023/06/08 02:57:51;;;;;;;14.15;11.65;;;17.10;99.90;;;;;;5070501;28;20768;-79
2023/06/08 03:00:44;;;;;;;13.65;12.15;;;17.10;99.90;;;;;;5043524;28;20220;-78
2023/06/08 03:03:56;;;;;;;14.00;11.43;;;17.10;99.90;;;;;;5084076;28;20227;-78
2023/06/08 03:06:53;;;;;;;12.57;11.27;;;17.20;99.90;;;;;;5069849;28;20219;-78
2023/06/08 03:09:43;;;;;;;14.57;11.70;;;17.00;99.90;;;;;;5062080;28;20238;-78
2023/06/08 03:12:36;;;;;;;13.15;11.70;;;16.90;99.90;;;;;;5074038;28;20369;-78
2023/06/08 03:15:26;;;;;;;13.07;11.52;;;16.80;99.90;;;;;;5065925;28;20223;-78
2023/06/08 03:18:22;;;;;;;16.38;11.95;;;16.90;99.90;;;;;;5072479;28;20273;-78
2023/06/08 03:21:12;;;;;;;14.02;11.10;;;17.10;99.90;;;;;;5071044;28;20230;-78
2023/06/08 03:24:04;;;;;;;15.25;11.65;;;17.10;99.90;;;;;;5077875;28;20303;-78
2023/06/08 03:26:53;;;;;;;14.05;10.90;;;17.10;99.90;;;;;;5055643;28;20291;-78
2023/06/08 03:29:43;;;;;;;13.77;11.20;;;17.00;99.90;;;;;;5069625;28;20250;-78
2023/06/08 03:32:32;;;;;;;15.60;11.23;;;17.30;99.90;;;;;;5067539;28;20401;-78
2023/06/08 03:35:21;;;;;;;15.35;11.70;;;17.20;99.90;;;;;;5055498;28;20221;-78
2023/06/08 03:38:23;;;;;;;13.85;10.45;;;17.40;99.90;;;;;;5057072;28;20239;-73
2023/06/08 03:41:19;;;;;;;14.30;11.13;;;17.30;99.90;;;;;;5055629;28;20259;-77
2023/06/08 03:44:10;;;;;;;11.80;10.38;;;17.30;99.90;;;;;;5060393;28;20223;-78
2023/06/08 03:47:00;;;;;;;12.00;9.93;;;17.20;99.90;;;;;;5052853;28;20220;-77
2023/06/08 03:49:50;;;;;;;13.32;10.88;;;17.50;99.90;;;;;;5085227;28;20228;-77
2023/06/08 03:52:39;;;;;;;11.52;9.77;;;17.50;99.90;;;;;;5072706;28;20220;-78
2023/06/08 03:55:29;;;;;;;12.57;9.48;;;17.40;99.90;;;;;;5060885;28;20235;-76
2023/06/08 03:58:21;;;;;;;13.85;9.85;;;17.40;99.90;;;;;;5069780;28;20782;-78
2023/06/08 04:01:10;;;;;;;10.55;9.48;;;17.40;99.90;;;;;;5068593;28;20306;-77
2023/06/08 04:04:00;;;;;;;14.75;9.32;;;17.50;99.90;;;;;;5073442;28;20307;-78
2023/06/08 04:06:48;;;;;;;11.68;9.55;;;17.70;99.90;;;;;;5078445;28;20225;-78
2023/06/08 04:09:37;;;;;;;12.07;9.52;;;17.80;99.90;;;;;;5069993;28;20228;-78
2023/06/08 04:12:26;;;;;;;10.05;8.82;;;17.90;99.90;;;;;;5059102;28;20322;-78
2023/06/08 04:15:17;;;;;;;10.27;8.80;;;18.00;99.90;;;;;;5065544;28;20269;-78
2023/06/08 04:18:06;;;;;;;12.18;9.30;;;17.90;99.90;;;;;;5062618;28;20749;-77
2023/06/08 04:20:55;;;;;;;13.07;9.25;;;17.80;99.90;;;;;;5078193;28;20220;-78
2023/06/08 04:23:46;;;;;;;10.48;8.50;;;18.00;99.90;;;;;;5072577;28;20227;-77
2023/06/08 04:26:37;;;;;;;9.52;8.55;;;18.00;99.90;;;;;;5065712;28;20775;-78
2023/06/08 04:29:27;;;;;;;11.70;8.70;;;18.10;99.90;;;;;;5066387;28;20699;-79
2023/06/08 04:32:17;;;;;;;10.15;8.13;;;18.00;99.90;;;;;;5049637;28;20216;-79
2023/06/08 04:35:09;;;;;;;9.02;8.05;;;17.90;99.90;;;;;;5063067;28;20270;-77
2023/06/08 04:37:59;;;;;;;10.88;7.97;;;18.10;99.90;;;;;;5069983;28;20456;-78
2023/06/08 04:40:49;;;;;;;9.77;8.18;;;18.10;99.90;;;;;;5070167;28;20330;-78
2023/06/08 04:43:39;;;;;;;10.27;7.45;;;18.30;99.90;;;;;;5069216;28;20440;-77
2023/06/08 04:46:37;;;;;;;13.27;8.45;;;18.40;99.90;;;;;;5049906;28;20216;-78
2023/06/08 04:49:31;;;;;;;11.98;8.20;;;18.60;99.90;;;;;;5074028;28;20227;-79
2023/06/08 04:52:20;;;;;;;9.18;7.57;;;18.70;99.90;;;;;;5058214;28;20297;-80
2023/06/08 04:55:12;;;;;;;8.15;7.32;;;18.60;99.90;;;;;;5078951;28;20353;-78
2023/06/08 04:58:02;;;;;;;8.77;7.55;;;18.50;99.90;;;;;;5055722;28;20227;-80
2023/06/08 05:00:52;;;;;;;8.98;7.82;;;18.60;99.90;;;;;;5068016;28;20359;-79
2023/06/08 05:03:42;;;;;;;11.52;7.25;;;18.40;99.90;;;;;;5051012;28;20662;-80
2023/06/08 05:06:32;;;;;;;9.27;7.40;;;18.50;99.90;;;;;;5062294;28;20635;-78
2023/06/08 05:09:21;;;;;;;8.85;6.85;;;18.90;99.90;;;;;;5048043;28;20741;-79
2023/06/08 05:12:11;;;;;;;10.38;7.18;;;18.90;99.90;;;;;;5046483;28;20665;-79
2023/06/08 05:15:02;;;;;;;8.05;6.93;;;19.20;99.90;;;;;;5050857;28;20808;-79
2023/06/08 05:17:52;;;;;;;8.93;7.03;;;19.50;99.90;;;;;;5063947;28;20228;-79
2023/06/08 05:20:41;;;;;;;8.88;7.03;;;19.40;99.90;;;;;;5052668;28;20213;-79
2023/06/08 05:23:31;;;;;;;8.23;6.63;;;19.30;99.90;;;;;;5076912;28;20219;-78
2023/06/08 05:26:21;;;;;;;9.20;7.13;;;19.50;99.90;;;;;;5060687;28;20707;-80
2023/06/08 05:29:11;;;;;;;10.07;6.90;;;19.40;99.90;;;;;;5048883;28;20223;-79
2023/06/08 05:32:01;;;;;;;9.93;7.22;;;19.30;99.90;;;;;;5076085;28;20723;-79
2023/06/08 05:34:50;;;;;;;12.38;7.60;;;19.60;99.90;;;;;;5075782;28;20360;-79
2023/06/08 05:37:39;;;;;;;10.27;7.30;;;19.90;99.90;;;;;;5069622;28;20216;-77
2023/06/08 05:40:29;;;;;;;11.32;7.20;;;20.10;99.90;;;;;;5064211;28;20785;-79
2023/06/08 05:43:18;;;;;;;8.25;6.75;;;20.00;99.90;;;;;;5081529;28;20316;-78
2023/06/08 05:46:07;;;;;;;9.75;7.03;;;20.00;99.90;;;;;;5068979;28;20232;-79
2023/06/08 05:48:56;;;;;;;8.93;6.88;;;20.10;99.90;;;;;;5082157;28;20525;-80
2023/06/08 05:51:45;;;;;;;7.43;6.72;;;20.10;99.90;;;;;;5071957;28;20224;-80
2023/06/08 05:54:35;;;;;;;8.13;7.32;;;20.10;99.90;;;;;;5069566;28;20756;-79
2023/06/08 05:57:25;;;;;;;11.00;6.85;;;19.90;99.90;;;;;;5088423;28;20231;-79
2023/06/08 06:00:15;;;;;;;10.20;6.63;;;19.90;99.90;;;;;;5074964;28;20215;-78
2023/06/08 06:03:03;;;;;;;8.23;7.00;;;20.20;99.90;;;;;;5069881;28;20760;-78
2023/06/08 06:05:52;;;;;;;5.60;5.10;;;20.20;99.90;;;;;;5086919;28;20223;-79
2023/06/08 06:08:41;;;;;;;6.53;5.85;;;20.30;99.90;;;;;;5070291;28;20230;-80
2023/06/08 06:11:32;;;;;;;7.28;5.28;;;20.20;99.90;;;;;;5084517;28;20288;-79
2023/06/08 06:14:23;;;;;;;6.95;5.95;;;20.10;99.90;;;;;;5071960;28;21284;-80
2023/06/08 06:17:15;;;;;;;6.38;5.47;;;20.30;99.90;;;;;;5056525;28;20505;-79
2023/06/08 06:20:05;;;;;;;6.80;5.90;;;20.60;99.90;;;;;;5056837;28;20290;-80
2023/06/08 06:22:55;;;;;;;8.30;5.75;;;20.80;99.90;;;;;;5061203;28;20588;-79
2023/06/08 06:25:50;;;;;;;6.70;6.00;;;20.80;99.90;;;;;;5049656;28;20220;-81
2023/06/08 06:28:39;;;;;;;6.72;5.40;;;20.60;99.90;;;;;;5050646;28;20361;-80
2023/06/08 06:31:30;;;;;;;6.93;6.22;;;20.40;99.90;;;;;;5055878;28;20257;-79
2023/06/08 06:34:20;;;;;;;7.25;5.20;;;20.40;99.90;;;;;;5049904;28;20235;-80
2023/06/08 06:37:09;;;;;;;5.78;5.18;;;20.50;99.90;;;;;;5060921;28;20224;-79
2023/06/08 06:39:58;;;;;;;6.32;5.13;;;20.80;99.90;;;;;;5059581;28;20256;-79
2023/06/08 06:42:47;;;;;;;6.90;5.25;;;21.00;99.90;;;;;;5084807;28;20223;-80
2023/06/08 06:45:50;;;;;;;6.05;4.80;;;21.20;99.90;;;;;;5070860;28;20227;-78
2023/06/08 06:48:41;;;;;;;5.43;4.63;;;21.80;99.90;;;;;;5074380;28;20234;-78
2023/06/08 06:51:29;;;;;;;7.38;5.05;;;21.90;98.40;;;;;;5050800;28;20212;-79
2023/06/08 06:54:18;;;;;;;6.40;4.70;;;21.80;99.10;;;;;;5057985;28;20239;-79
2023/06/08 06:57:08;;;;;;;6.72;4.95;;;21.60;98.90;;;;;;5047663;28;20673;-81
2023/06/08 06:59:56;;;;;;;6.57;4.65;;;21.60;99.00;;;;;;5054603;28;20299;-80
2023/06/08 07:02:45;;;;;;;7.18;4.78;;;21.70;98.60;;;;;;5076841;28;20250;-79
2023/06/08 07:05:36;;;;;;;5.05;4.20;;;21.80;98.90;;;;;;5043522;28;20643;-81
2023/06/08 07:08:25;;;;;;;4.85;4.35;;;22.00;98.20;;;;;;5057476;28;20261;-80
2023/06/08 07:11:14;;;;;;;6.72;4.30;;;22.60;98.10;;;;;;5065675;28;20290;-78
2023/06/08 07:14:03;;;;;;;6.13;4.30;;;23.20;96.30;;;;;;5075634;28;20228;-79
2023/06/08 07:16:52;;;;;;;5.60;3.88;;;23.30;96.30;;;;;;5084315;28;20254;-81
2023/06/08 07:19:42;;;;;;;5.68;4.30;;;23.30;95.30;;;;;;5060812;28;20300;-80
2023/06/08 07:22:33;;;;;;;5.35;4.10;;;23.40;95.90;;;;;;5068509;28;20219;-80
2023/06/08 07:25:43;;;;;;;6.32;4.05;;;23.70;94.70;;;;;;5069057;28;20243;-79
2023/06/08 07:28:54;;;;;;;10.73;3.80;;;24.20;93.30;;;;;;5082088;28;20250;-80
2023/06/08 07:31:42;;;;;;;5.75;4.00;;;24.60;93.50;;;;;;5083555;28;20216;-80
2023/06/08 07:34:32;;;;;;;5.22;4.43;;;24.40;92.10;;;;;;5082440;28;20228;-80
2023/06/08 07:37:20;;;;;;;7.00;4.13;;;24.60;92.10;;;;;;5052373;28;20224;-79
2023/06/08 07:40:12;;;;;;;8.45;4.50;;;24.80;92.00;;;;;;5057555;28;20228;-79
2023/06/08 07:43:00;;;;;;;6.68;4.03;;;25.00;90.70;;;;;;5056429;28;20232;-79
2023/06/08 07:45:49;;;;;;;6.65;4.22;;;25.60;90.60;;;;;;5066599;28;20677;-79
2023/06/08 07:48:38;;;;;;;6.38;4.50;;;25.70;89.60;;;;;;5060928;28;20267;-80
2023/06/08 07:51:27;;;;;;;7.10;4.50;;;26.20;88.40;;;;;;5077713;28;20228;-79
2023/06/08 07:54:19;;;;;;;7.43;4.40;;;26.60;85.90;;;;;;5061197;28;20311;-79
2023/06/08 07:57:11;;;;;;;5.22;4.18;;;26.90;87.20;;;;;;5066381;28;20219;-80
2023/06/08 08:00:00;;;;;;;4.68;4.10;;;27.20;84.40;;;;;;5078018;28;20848;-79
2023/06/08 08:02:48;;;;;;;8.00;4.50;;;27.50;83.80;;;;;;5065141;28;20247;-80
2023/06/08 08:05:38;;;;;;;6.47;4.22;;;27.40;84.50;;;;;;5052383;28;20630;-80
2023/06/08 08:08:26;;;;;;;8.48;4.82;;;27.80;84.80;;;;;;5071737;28;20708;-80
2023/06/08 08:11:15;;;;;;;5.30;4.80;;;27.60;81.80;;;;;;5068144;28;20215;-79
2023/06/08 08:14:09;;;;;;;4.80;4.05;;;27.60;80.70;;;;;;5073297;28;20845;-81
2023/06/08 08:16:58;;;;;;;7.50;4.07;;;28.10;81.80;;;;;;5053843;28;20227;-79
2023/06/08 08:19:47;;;;;;;4.78;4.20;;;28.20;77.20;;;;;;5063517;28;20226;-81
2023/06/08 08:22:36;;;;;;;6.30;4.07;;;28.20;75.40;;;;;;5068721;28;20293;-81
2023/06/08 08:25:25;;;;;;;4.43;3.97;;;28.10;75.70;;;;;;5074558;28;20234;-80
2023/06/08 08:28:14;;;;;;;4.85;3.80;;;27.80;75.90;;;;;;5066769;28;20226;-80
2023/06/08 08:31:04;;;;;;;6.07;4.18;;;28.10;75.30;;;;;;5069490;28;20215;-82
2023/06/08 08:33:53;;;;;;;5.28;3.50;;;27.60;75.10;;;;;;5050786;28;20264;-81
2023/06/08 08:36:42;;;;;;;6.07;4.30;;;28.10;74.50;;;;;;5066092;28;20213;-82
2023/06/08 08:39:32;;;;;;;7.43;3.88;;;28.20;74.80;;;;;;5079434;28;20219;-80
2023/06/08 08:42:25;;;;;;;6.22;4.15;;;28.40;75.50;;;;;;5069615;28;20226;-80
2023/06/08 08:45:17;;;;;;;6.55;4.05;;;29.30;74.20;;;;;;5063691;28;20227;-80
2023/06/08 08:48:08;;;;;;;7.07;4.43;;;29.30;71.60;;;;;;5081080;28;20245;-80
2023/06/08 08:50:59;;;;;;;5.30;3.88;;;29.60;72.10;;;;;;5080233;28;20324;-81
2023/06/08 08:53:49;;;;;;;5.00;4.25;;;29.70;72.10;;;;;;5082588;28;20223;-81
2023/06/08 08:56:38;;;;;;;7.53;4.05;;;29.50;70.90;;;;;;5089239;28;20972;-80
2023/06/08 08:59:28;;;;;;;8.45;4.65;;;29.10;71.10;;;;;;5081945;28;20298;-81
2023/06/08 09:02:17;;;;;;;5.30;3.72;;;29.30;70.30;;;;;;5086758;28;20872;-81
2023/06/08 09:05:12;;;;;;;6.60;3.78;;;29.60;70.40;;;;;;5055929;28;20231;-81
2023/06/08 09:08:02;;;;;;;5.97;3.85;;;28.60;71.20;;;;;;5070778;28;20277;-82
2023/06/08 09:11:03;;;;;;;4.88;3.58;;;29.20;69.30;;;;;;5065775;28;20259;-80
2023/06/08 09:14:07;;;;;;;6.13;3.70;;;29.30;69.00;;;;;;5058978;28;20234;-81
2023/06/08 09:16:59;;;;;;;4.32;3.47;;;29.30;67.70;;;;;;5057541;28;20226;-81
2023/06/08 09:19:55;;;;;;;7.05;3.42;;;29.60;67.00;;;;;;5068648;28;20231;-81
2023/06/08 09:22:45;;;;;;;4.85;3.38;;;30.40;67.40;;;;;;5084420;28;20224;-81
2023/06/08 09:25:37;;;;;;;6.45;4.00;;;30.10;66.90;;;;;;5062938;28;20216;-82
2023/06/08 09:28:28;;;;;;;6.57;3.70;;;30.10;65.10;;;;;;5079990;28;20242;-81
2023/06/08 09:31:17;;;;;;;4.63;3.75;;;30.90;66.50;;;;;;5063621;28;20234;-81
2023/06/08 09:34:12;;;;;;;6.15;3.83;;;31.60;64.60;;;;;;5069908;28;20255;-81
2023/06/08 09:37:07;;;;;;;6.10;3.25;;;31.60;63.40;;;;;;5083131;28;20279;-82
2023/06/08 09:39:58;;;;;;;4.47;3.60;;;31.30;63.30;;;;;;5079903;28;20295;-82
2023/06/08 09:42:50;;;;;;;4.70;3.40;;;31.70;63.40;;;;;;5066904;28;20243;-83
2023/06/08 09:45:45;;;;;;;4.53;3.70;;;31.70;60.60;;;;;;5056549;28;20599;-81
2023/06/08 09:48:34;;;;;;;4.10;3.40;;;32.60;61.80;;;;;;5048144;28;20208;-82
2023/06/08 09:51:24;;;;;;;5.68;3.50;;;34.20;60.50;;;;;;5090416;28;20697;-82
2023/06/08 09:54:15;;;;;;;5.05;3.70;;;35.40;57.90;;;;;;5080305;28;20312;-83
2023/06/08 09:57:06;;;;;;;6.03;3.70;;;35.70;56.40;;;;;;5064974;28;20808;-84
2023/06/08 10:00:08;;;;;;;4.00;3.42;;;35.60;56.50;;;;;;5071296;28;20211;-83
2023/06/08 10:03:08;;;;;;;5.00;3.67;;;36.50;55.20;;;;;;5069124;28;20235;-82
2023/06/08 10:05:59;;;;;;;4.10;3.35;;;35.90;54.80;;;;;;5065760;28;20219;-83
2023/06/08 10:08:52;;;;;;;5.95;3.90;;;36.60;53.90;;;;;;5073740;28;20308;-85
2023/06/08 10:11:42;;;;;;;6.05;3.40;;;36.90;53.50;;;;;;5057962;28;20250;-84
2023/06/08 10:14:33;;;;;;;4.40;3.65;;;37.30;53.00;;;;;;5059802;28;20303;-84
2023/06/08 10:17:24;;;;;;;4.20;3.78;;;36.40;52.80;;;;;;5068370;28;20219;-83
2023/06/08 10:20:16;;;;;;;6.35;3.63;;;36.70;54.60;;;;;;5077493;28;20218;-83
2023/06/08 10:23:06;;;;;;;7.60;3.78;;;38.70;52.30;;;;;;5068731;28;20759;-83
2023/06/08 10:25:55;;;;;;;6.47;3.83;;;38.40;52.70;;;;;;5051449;28;20243;-85
2023/06/08 10:29:04;;;;;;;4.18;3.20;;;37.90;49.60;;;;;;5063436;28;20377;-83
2023/06/08 10:32:11;;;;;;;7.75;3.40;;;39.90;49.20;;;;;;5046014;28;20219;-83
2023/06/08 10:35:04;;;;;;;8.40;3.20;;;40.50;49.10;;;;;;5045281;28;20223;-83
2023/06/08 10:37:54;;;;;;;3.67;3.33;;;40.50;49.10;;;;;;5063690;28;20234;-83
2023/06/08 10:40:44;;;;;;;5.70;3.40;;;40.70;48.40;;;;;;5070986;28;20831;-83
2023/06/08 10:43:33;;;;;;;5.72;3.33;;;39.10;50.40;;;;;;5082800;28;20219;-83
2023/06/08 10:46:43;;;;;;;4.05;3.58;;;41.00;49.00;;;;;;5058997;28;20208;-83
2023/06/08 10:49:36;;;;;;;5.13;3.63;;;40.00;49.60;;;;;;5064011;28;20222;-83
2023/06/08 10:52:26;;;;;;;5.15;3.60;;;42.10;46.00;;;;;;5082973;28;20235;-84
2023/06/08 10:55:16;;;;;;;3.72;3.22;;;41.80;44.80;;;;;;5075666;28;20214;-85
2023/06/08 10:58:16;;;;;;;5.57;3.17;;;41.70;45.10;;;;;;5065062;28;20299;-84
2023/06/08 11:01:07;;;;;;;3.25;2.95;;;41.50;45.00;;;;;;5060989;28;20231;-84
2023/06/08 11:04:00;;;;;;;5.22;3.05;;;42.60;44.40;;;;;;5053438;28;20224;-84
2023/06/08 11:06:55;;;;;;;8.35;3.13;;;43.50;45.00;;;;;;5065974;28;20594;-85
2023/06/08 11:09:45;;;;;;;4.75;2.83;;;42.40;43.90;;;;;;5042670;28;20286;-85
2023/06/08 11:12:33;;;;;;;7.07;3.30;;;42.30;45.10;;;;;;5050484;28;20316;-84
2023/06/08 11:15:22;;;;;;;4.10;2.97;;;43.80;43.90;;;;;;5067482;28;20461;-84
2023/06/08 11:18:12;;;;;;;3.95;2.92;;;42.70;41.70;;;;;;5084480;28;20668;-85
2023/06/08 11:21:02;;;;;;;5.85;3.13;;;42.80;43.50;;;;;;5064704;28;20305;-84
2023/06/08 11:23:52;;;;;;;4.78;2.78;;;42.50;41.00;;;;;;5066593;28;20216;-85
2023/06/08 11:26:41;;;;;;;5.05;3.00;;;42.90;42.00;;;;;;5083886;28;20228;-83
2023/06/08 11:29:47;;;;;;;4.45;2.78;;;44.20;42.00;;;;;;5048996;28;20242;-83
2023/06/08 11:32:38;;;;;;;4.60;2.83;;;44.40;41.00;;;;;;5059056;28;20735;-83
2023/06/08 11:35:27;;;;;;;4.03;3.10;;;45.00;40.40;;;;;;5067003;28;20714;-83
2023/06/08 11:38:16;;;;;;;6.22;2.90;;;43.80;40.00;;;;;;5062260;28;20658;-84
2023/06/08 11:41:10;;;;;;;10.55;2.90;;;46.40;40.50;;;;;;5062758;28;20959;-83
2023/06/08 11:43:59;;;;;;;4.53;2.70;;;47.60;38.70;;;;;;5070474;28;20254;-83
2023/06/08 11:46:48;;;;;;;2.83;2.60;;;47.90;38.30;;;;;;5052324;28;20693;-85
2023/06/08 11:49:53;;;;;;;3.50;2.75;;;47.70;38.50;;;;;;5052154;28;20246;-84
2023/06/08 11:52:42;;;;;;;4.68;2.80;;;49.00;37.70;;;;;;5047844;28;20416;-85
2023/06/08 11:55:33;;;;;;;2.85;2.65;;;47.40;35.00;;;;;;5061494;28;20227;-83
2023/06/08 11:58:27;;;;;;;6.07;3.00;;;46.30;36.40;;;;;;5074988;28;20276;-84
2023/06/08 12:01:18;;;;;;;4.20;2.90;;;48.00;36.50;;;;;;5072849;28;20222;-82
2023/06/08 12:04:14;;;;;;;4.82;2.92;;;49.20;35.60;;;;;;5070949;28;20223;-82
2023/06/08 12:07:10;;;;;;;5.13;2.85;;;47.50;35.20;;;;;;5077544;28;20303;-84
2023/06/08 12:10:01;;;;;;;2.95;2.60;;;46.20;36.20;;;;;;5058696;28;20270;-84
2023/06/08 12:12:50;;;;;;;6.80;2.50;;;46.20;36.50;;;;;;5054334;28;20239;-83
2023/06/08 12:15:43;;;;;;;6.35;3.25;;;46.10;35.80;;;;;;5066518;28;20296;-84
2023/06/08 12:18:38;;;;;;;4.47;2.95;;;47.90;36.00;;;;;;5059350;28;20236;-84
2023/06/08 12:21:27;;;;;;;4.38;2.95;;;48.70;35.20;;;;;;5062568;28;20216;-83
2023/06/08 12:24:15;;;;;;;3.70;2.90;;;49.50;34.50;;;;;;5066462;28;20243;-84
2023/06/08 12:27:07;;;;;;;3.15;2.78;;;49.10;34.80;;;;;;5070250;28;20334;-83
2023/06/08 12:29:56;;;;;;;4.07;2.78;;;48.70;34.90;;;;;;5040338;28;20224;-85
2023/06/08 12:32:46;;;;;;;3.35;2.90;;;49.30;33.60;;;;;;5075206;28;20259;-83
2023/06/08 12:35:35;;;;;;;5.07;2.60;;;49.00;34.10;;;;;;5061271;28;20223;-84
2023/06/08 12:38:24;;;;;;;4.40;2.67;;;49.10;33.50;;;;;;5057969;28;20212;-82
2023/06/08 12:41:13;;;;;;;9.70;2.90;;;46.40;33.50;;;;;;5054587;28;20718;-84
2023/06/08 12:44:02;;;;;;;4.07;3.35;;;46.60;33.40;;;;;;5062587;28;20410;-84
2023/06/08 12:46:52;;;;;;;3.75;2.75;;;46.50;35.00;;;;;;5078804;28;20302;-83
2023/06/08 12:49:42;;;;;;;6.13;2.55;;;43.90;36.70;;;;;;5073687;28;20231;-82
2023/06/08 12:52:31;;;;;;;4.53;2.80;;;43.50;36.60;;;;;;5075983;28;20760;-85
2023/06/08 12:55:20;;;;;;;4.93;3.17;;;37.70;39.20;;;;;;5057893;28;20250;-83
2023/06/08 12:58:08;;;;;;;7.47;3.35;;;34.80;44.40;;;;;;5043919;28;20232;-82
2023/06/08 13:00:57;;;;;;;5.88;3.30;;;33.00;45.90;;;;;;5060920;28;20235;-81
2023/06/08 13:03:46;;;;;;;5.90;3.25;;;31.70;49.30;;;;;;5069218;28;20246;-81
2023/06/08 13:06:37;;;;;;;4.68;3.72;;;31.40;49.30;;;;;;5075510;28;20216;-82
2023/06/08 13:09:25;;;;;;;3.88;3.47;;;30.90;51.20;;;;;;5085536;28;20324;-81
2023/06/08 13:12:14;;;;;;;7.68;3.88;;;30.20;51.70;;;;;;5061016;28;20287;-82
2023/06/08 13:15:04;;;;;;;10.55;3.88;;;29.60;52.60;;;;;;5066955;28;20234;-82
2023/06/08 13:17:54;;;;;;;6.43;3.83;;;29.20;54.10;;;;;;5048759;28;20662;-81
2023/06/08 13:20:43;;;;;;;5.63;3.90;;;29.20;54.20;;;;;;5049971;28;20239;-81
2023/06/08 13:23:33;;;;;;;4.72;4.07;;;28.90;54.90;;;;;;5064509;28;20227;-82
2023/06/08 13:26:23;;;;;;;5.88;4.15;;;29.00;55.30;;;;;;5037143;28;20524;-82
2023/06/08 13:29:12;;;;;;;4.85;4.28;;;29.10;56.00;;;;;;5069702;28;20863;-83
2023/06/08 13:32:01;;;;;;;5.28;3.80;;;28.30;56.50;;;;;;5041696;28;20324;-83
2023/06/08 13:34:50;;;;;;;5.97;4.25;;;28.50;57.20;;;;;;5062422;28;20216;-81
2023/06/08 13:37:40;;;;;;;5.43;4.22;;;28.20;57.20;;;;;;5060596;28;20222;-82
2023/06/08 13:40:32;;;;;;;6.80;3.80;;;28.30;58.00;;;;;;5069202;28;20227;-83
2023/06/08 13:43:21;;;;;;;8.48;4.00;;;28.50;57.90;;;;;;5065493;28;20350;-81
2023/06/08 13:46:09;;;;;;;4.38;3.97;;;28.30;56.90;;;;;;5055960;28;20239;-82
2023/06/08 13:48:59;;;;;;;7.03;4.30;;;28.40;57.10;;;;;;5065172;28;20219;-82
2023/06/08 13:51:48;;;;;;;6.20;4.10;;;28.30;57.50;;;;;;5049571;28;20223;-82
2023/06/08 13:54:37;;;;;;;8.77;4.68;;;28.20;57.70;;;;;;5075764;28;20231;-82
2023/06/08 13:57:28;;;;;;;7.05;4.13;;;27.70;58.00;;;;;;5064719;28;20246;-82
2023/06/08 14:00:17;;;;;;;5.18;3.90;;;27.70;58.90;;;;;;5060338;28;20774;-80
2023/06/08 14:03:06;;;;;;;9.52;4.65;;;27.70;59.70;;;;;;5050012;28;20299;-82
2023/06/08 14:05:56;;;;;;;5.22;3.90;;;27.70;58.90;;;;;;5054500;28;20698;-82
2023/06/08 14:08:45;;;;;;;4.70;3.95;;;27.70;58.90;;;;;;5073178;28;20222;-80
2023/06/08 14:11:34;;;;;;;5.20;4.13;;;27.60;59.20;;;;;;5085636;28;20223;-82
2023/06/08 14:14:25;;;;;;;4.85;3.95;;;27.50;59.50;;;;;;5064546;28;20337;-83
2023/06/08 14:17:14;;;;;;;5.32;4.45;;;27.60;59.20;;;;;;5053883;28;20227;-82
2023/06/08 14:20:04;;;;;;;8.48;4.22;;;27.60;58.80;;;;;;5062029;28;20214;-82
2023/06/08 14:22:53;;;;;;;10.25;4.20;;;27.20;59.90;;;;;;5085149;28;20753;-81
2023/06/08 14:25:42;;;;;;;6.40;4.00;;;27.20;59.50;;;;;;5043724;28;20221;-82
2023/06/08 14:28:32;;;;;;;6.03;4.35;;;27.20;59.10;;;;;;5063354;28;20615;-81
2023/06/08 14:31:24;;;;;;;4.95;4.25;;;27.30;59.60;;;;;;5078994;28;20223;-82
2023/06/08 14:34:13;;;;;;;6.47;4.13;;;27.40;59.70;;;;;;5064614;28;20683;-81
2023/06/08 14:37:04;;;;;;;5.72;4.10;;;27.00;59.80;;;;;;5056646;28;20227;-81
2023/06/08 14:39:53;;;;;;;4.80;3.85;;;27.00;60.90;;;;;;5066056;28;20230;-81
2023/06/08 14:42:44;;;;;;;4.97;4.03;;;27.10;60.80;;;;;;5079599;28;20554;-79